首页
METAR-TAF:

METAR-TAF

机场 :

奧克蘭機場

奧克蘭都會區, 新西兰

纬度: 37-01S, 经度: 174-48E, 海拔: 7米

当前天气观测

该预报发布于32分钟前的13:00 UTC
风速2节,风向东转东南
温度 6°C
湿度 93%
气压 1023 hPa
能见度10公里或以上

METAR: NZAA 181300Z AUTO 12002KT 9999 NCD 06/05 Q1023 NOSIG

时间: 01:32 (13:32 UTC)

预报

该预报发布于2小时和29分钟前的11:03 UTC
预报有效从18日的 12点(UTC)到 19日的 12点(UTC)
风速5节,风向东转东南
能见度10公里或以上
从 19日的 0200点(UTC)
风速10节,风向
能见度10公里或以上
少量云层高于2500英尺

TAF: NZAA 181103Z 1812/1912 12005KT 9999 NSC FM190200 08010KT 9999 FEW025

超过4000个机场的气象观测和天气预报(METAR&TAF报告)。

可查询的气象台以黄色和红色小点在地图上表示。

将鼠标移到小点上方,可查看气象台名称。

然后点击查看天气观测和预报。

如需切换地图:点击带黑十字的绿色按钮放大地图;点击带横线的绿色按钮缩小地图;或者点击绿色箭头查看邻近地区的地图。


METAR-TAF: